createdAt,value
2018-03-22T00:02:19.359Z,31.13
2018-03-22T00:04:47.320Z,31.33
2018-03-22T00:07:15.266Z,32.50
2018-03-22T00:09:46.037Z,33.60
2018-03-22T00:12:14.009Z,32.60
2018-03-22T00:14:42.115Z,31.23
2018-03-22T00:17:10.250Z,31.60
2018-03-22T00:19:38.608Z,30.93
2018-03-22T00:22:06.818Z,31.90
2018-03-22T00:24:34.984Z,31.97
2018-03-22T00:27:02.950Z,32.57
2018-03-22T00:29:30.872Z,32.67
2018-03-22T00:31:59.554Z,33.67
2018-03-22T00:34:28.274Z,32.57
2018-03-22T00:36:56.082Z,32.20
2018-03-22T00:39:23.959Z,32.90
2018-03-22T00:41:51.877Z,33.53
2018-03-22T00:44:19.858Z,32.87
2018-03-22T00:46:47.695Z,32.27
2018-03-22T00:49:15.688Z,31.30
2018-03-22T00:51:43.638Z,34.97
2018-03-22T00:54:11.596Z,32.17
2018-03-22T00:56:39.557Z,32.57
2018-03-22T00:59:11.784Z,32.90
2018-03-22T01:01:40.823Z,36.73
2018-03-22T01:04:13.486Z,34.27
2018-03-22T01:06:44.842Z,33.80
2018-03-22T01:09:16.026Z,32.63
2018-03-22T01:14:30.363Z,34.37
2018-03-22T01:17:01.511Z,33.07
2018-03-22T01:19:30.854Z,33.70
2018-03-22T01:21:58.715Z,33.77
2018-03-22T01:24:26.693Z,33.53
2018-03-22T01:26:55.492Z,35.40
2018-03-22T01:29:26.372Z,34.90
2018-03-22T01:31:58.027Z,35.77
2018-03-22T01:37:00.515Z,33.90
2018-03-22T01:39:28.400Z,33.60
2018-03-22T01:41:56.879Z,34.13
2018-03-22T01:44:24.833Z,34.27
2018-03-22T01:46:52.802Z,33.80
2018-03-22T01:49:21.027Z,34.70
2018-03-22T01:51:49.318Z,34.80
2018-03-22T01:54:18.041Z,34.50
2018-03-22T01:56:47.984Z,33.83
2018-03-22T01:59:15.978Z,33.83
2018-03-22T02:01:47.800Z,34.60
2018-03-22T02:04:16.611Z,34.63
2018-03-22T02:06:51.349Z,32.23
2018-03-22T02:09:27.292Z,30.27
2018-03-22T02:11:57.502Z,32.13
2018-03-22T02:14:30.117Z,33.40
2018-03-22T02:16:58.519Z,30.53
2018-03-22T02:19:28.723Z,29.53
2018-03-22T02:21:59.194Z,31.17
2018-03-22T02:24:30.293Z,29.23
2018-03-22T02:27:01.074Z,29.60
2018-03-22T02:29:29.154Z,27.53
2018-03-22T02:32:00.851Z,29.47
2018-03-22T02:34:30.913Z,28.37
2018-03-22T02:37:03.348Z,44.28
2018-03-22T02:39:32.187Z,28.90
2018-03-22T02:42:00.667Z,28.07
2018-03-22T02:47:13.292Z,29.07
2018-03-22T02:49:41.741Z,28.20
2018-03-22T02:52:13.571Z,28.20
2018-03-22T02:54:45.392Z,27.47
2018-03-22T02:57:13.723Z,28.07
2018-03-22T02:59:44.529Z,26.80
2018-03-22T03:02:15.270Z,27.07
2018-03-22T03:04:43.510Z,25.97
2018-03-22T03:07:11.465Z,27.07
2018-03-22T03:09:39.444Z,28.10
2018-03-22T03:12:07.727Z,26.00
2018-03-22T03:14:35.921Z,28.50
2018-03-22T03:17:05.151Z,31.20
2018-03-22T03:19:35.798Z,32.87
2018-03-22T03:22:03.833Z,31.07
2018-03-22T03:24:32.168Z,31.83
2018-03-22T03:27:01.796Z,32.77
2018-03-22T03:29:35.820Z,31.77
2018-03-22T03:32:10.523Z,31.60
2018-03-22T03:34:45.428Z,31.23
2018-03-22T03:37:13.860Z,27.97
2018-03-22T03:39:45.897Z,29.23
2018-03-22T03:42:13.866Z,28.53
2018-03-22T03:44:43.665Z,29.17
2018-03-22T03:47:11.928Z,30.20
2018-03-22T03:49:41.063Z,29.00
2018-03-22T03:52:11.170Z,28.87
2018-03-22T03:54:41.230Z,29.17
2018-03-22T03:57:11.937Z,30.50
2018-03-22T03:59:40.696Z,30.40
2018-03-22T04:02:44.491Z,32.00
2018-03-22T04:05:18.268Z,29.87
2018-03-22T04:07:51.487Z,31.43
2018-03-22T04:10:23.586Z,32.83
2018-03-22T04:12:51.822Z,31.97
2018-03-22T04:15:27.676Z,32.53
2018-03-22T04:17:55.782Z,31.40
2018-03-22T04:20:26.013Z,31.43
2018-03-22T04:23:00.703Z,33.07
2018-03-22T04:25:32.892Z,33.90
2018-03-22T04:28:04.859Z,31.40
2018-03-22T04:33:11.592Z,43.90
2018-03-22T04:35:45.734Z,40.63
2018-03-22T04:38:17.425Z,23.50
2018-03-22T04:40:45.619Z,38.50
2018-03-22T04:43:16.323Z,25.37
2018-03-22T04:45:45.311Z,39.95
2018-03-22T04:48:13.901Z,23.30
2018-03-22T04:50:42.591Z,24.90
2018-03-22T04:53:10.574Z,38.42
2018-03-22T04:55:41.620Z,28.27
2018-03-22T04:58:18.048Z,33.00
2018-03-22T05:00:56.912Z,37.28
2018-03-22T05:03:34.236Z,26.70
2018-03-22T05:06:04.595Z,38.67
2018-03-22T05:08:34.800Z,39.85
2018-03-22T05:11:09.880Z,24.93
2018-03-22T05:13:38.827Z,40.83
2018-03-22T05:16:06.747Z,41.67
2018-03-22T05:18:35.535Z,41.37
2018-03-22T05:21:04.204Z,26.43
2018-03-22T05:23:32.237Z,25.77
2018-03-22T05:26:00.062Z,28.50
2018-03-22T05:28:29.298Z,26.87
2018-03-22T05:30:57.195Z,28.47
2018-03-22T05:33:25.128Z,44.95
2018-03-22T05:35:59.143Z,46.05
2018-03-22T05:38:27.103Z,26.93
2018-03-22T05:40:55.166Z,32.87
2018-03-22T05:43:23.213Z,27.67
2018-03-22T05:45:51.421Z,27.57
2018-03-22T05:48:19.446Z,27.93
2018-03-22T05:50:48.351Z,26.33
2018-03-22T05:53:16.444Z,28.77
2018-03-22T05:55:44.395Z,51.63
2018-03-22T05:58:12.461Z,45.00
2018-03-22T06:00:40.482Z,46.28
2018-03-22T06:03:08.578Z,44.35
2018-03-22T06:05:37.548Z,40.78
2018-03-22T06:08:05.864Z,80.20
2018-03-22T06:10:33.757Z,39.33
2018-03-22T06:13:01.867Z,42.05
2018-03-22T06:15:30.007Z,40.72
2018-03-22T06:17:58.178Z,50.80
2018-03-22T06:20:26.042Z,44.03
2018-03-22T06:22:55.345Z,41.72
2018-03-22T06:25:23.438Z,56.33
2018-03-22T06:27:52.084Z,40.88
2018-03-22T06:30:20.120Z,45.05
2018-03-22T06:32:50.170Z,44.58
2018-03-22T06:35:19.461Z,42.58
2018-03-22T06:37:47.414Z,44.90
2018-03-22T06:40:15.987Z,43.55
2018-03-22T06:42:45.862Z,43.67
2018-03-22T06:45:15.435Z,41.90
2018-03-22T06:47:43.259Z,42.92
2018-03-22T06:50:11.483Z,47.55
2018-03-22T06:52:39.329Z,40.45
2018-03-22T06:55:07.234Z,42.83
2018-03-22T06:57:35.246Z,39.63
2018-03-22T07:00:03.453Z,39.53
2018-03-22T07:02:31.613Z,41.13
2018-03-22T07:04:59.597Z,42.15
2018-03-22T07:07:27.706Z,41.67
2018-03-22T07:09:55.806Z,41.95
2018-03-22T07:12:24.409Z,42.75
2018-03-22T07:14:52.237Z,41.25
2018-03-22T07:17:20.610Z,43.53
2018-03-22T07:19:48.973Z,43.38
2018-03-22T07:22:17.118Z,43.22
2018-03-22T07:24:45.246Z,41.45
2018-03-22T07:27:14.080Z,42.28
2018-03-22T07:29:42.132Z,42.65
2018-03-22T07:32:11.286Z,46.30
2018-03-22T07:34:39.333Z,43.87
2018-03-22T07:37:08.194Z,42.85
2018-03-22T07:39:36.246Z,42.50
2018-03-22T07:42:06.244Z,42.72
2018-03-22T07:44:39.981Z,42.83
2018-03-22T07:47:08.030Z,44.95
2018-03-22T07:49:37.445Z,43.55
2018-03-22T07:52:06.159Z,44.05
2018-03-22T07:54:34.161Z,43.33
2018-03-22T07:57:04.376Z,43.83
2018-03-22T07:59:32.257Z,45.05
2018-03-22T08:02:00.209Z,45.70
2018-03-22T08:04:28.126Z,46.53
2018-03-22T08:06:56.910Z,43.92
2018-03-22T08:09:26.317Z,44.35
2018-03-22T08:11:55.072Z,43.75
2018-03-22T08:14:22.961Z,44.90
2018-03-22T08:16:52.745Z,44.97
2018-03-22T08:19:20.817Z,43.67
2018-03-22T08:21:48.900Z,44.72
2018-03-22T08:24:17.291Z,43.70
2018-03-22T08:26:46.304Z,44.55
2018-03-22T08:29:14.214Z,44.78
2018-03-22T08:31:42.594Z,43.20
2018-03-22T08:34:10.561Z,42.42
2018-03-22T08:36:39.397Z,44.35
2018-03-22T08:39:07.630Z,43.33
2018-03-22T08:41:35.519Z,42.10
2018-03-22T08:44:04.284Z,44.10
2018-03-22T08:46:32.123Z,43.03
2018-03-22T08:48:59.964Z,42.45
2018-03-22T08:51:28.495Z,42.88
2018-03-22T08:53:56.568Z,41.55
2018-03-22T08:56:24.842Z,31.67
2018-03-22T08:58:52.657Z,29.60
2018-03-22T09:01:20.796Z,31.40
2018-03-22T09:03:49.933Z,32.00
2018-03-22T09:06:17.959Z,32.43
2018-03-22T09:08:45.827Z,31.20
2018-03-22T09:11:14.494Z,29.17
2018-03-22T09:13:42.684Z,29.67
2018-03-22T09:16:10.630Z,30.50
2018-03-22T09:18:38.452Z,30.97
2018-03-22T09:21:07.815Z,29.90
2018-03-22T09:23:35.892Z,28.30
2018-03-22T09:26:03.858Z,28.80
2018-03-22T09:28:32.471Z,30.10
2018-03-22T09:31:00.292Z,45.40
2018-03-22T09:33:28.381Z,43.10
2018-03-22T09:35:56.284Z,42.88
2018-03-22T09:38:24.218Z,41.72
2018-03-22T09:40:52.927Z,40.55
2018-03-22T09:43:20.815Z,43.40
2018-03-22T09:45:49.457Z,42.00
2018-03-22T09:48:18.138Z,43.90
2018-03-22T09:50:46.162Z,42.30
2018-03-22T09:53:13.999Z,43.78
2018-03-22T09:55:42.659Z,44.47
2018-03-22T09:58:11.218Z,45.65
2018-03-22T10:00:39.365Z,43.65
2018-03-22T10:03:07.267Z,44.33
2018-03-22T10:05:35.479Z,42.42
2018-03-22T10:08:03.414Z,45.50
2018-03-22T10:10:32.611Z,41.90
2018-03-22T10:13:00.884Z,42.05
2018-03-22T10:15:28.753Z,42.20
2018-03-22T10:17:56.614Z,43.25
2018-03-22T10:20:24.470Z,43.08
2018-03-22T10:22:52.932Z,44.20
2018-03-22T10:25:21.068Z,45.12
2018-03-22T10:27:49.201Z,43.15
2018-03-22T10:30:19.425Z,43.47
2018-03-22T10:32:47.498Z,41.10
2018-03-22T10:35:16.659Z,42.15
2018-03-22T10:37:44.693Z,41.13
2018-03-22T10:40:12.804Z,41.45
2018-03-22T10:42:41.108Z,41.65
2018-03-22T10:45:09.296Z,40.78
2018-03-22T10:47:39.883Z,39.60
2018-03-22T10:50:07.695Z,41.30
2018-03-22T10:52:35.512Z,40.17
2018-03-22T10:55:03.588Z,39.00
2018-03-22T10:57:31.489Z,39.95
2018-03-22T10:59:59.263Z,39.95
2018-03-22T11:02:33.886Z,41.03
2018-03-22T11:05:02.477Z,42.13
2018-03-22T11:07:33.727Z,42.45
2018-03-22T11:10:03.426Z,42.28
2018-03-22T11:12:32.227Z,43.63
2018-03-22T11:15:00.959Z,42.62
2018-03-22T11:17:29.197Z,41.22
2018-03-22T11:19:57.163Z,41.90
2018-03-22T11:22:25.589Z,41.60
2018-03-22T11:24:53.805Z,41.28
2018-03-22T11:27:27.677Z,42.70
2018-03-22T11:29:57.872Z,42.22
2018-03-22T11:32:30.080Z,44.95
2018-03-22T11:34:59.164Z,41.75
2018-03-22T11:37:30.804Z,42.25
2018-03-22T11:39:59.968Z,40.20
2018-03-22T11:42:28.379Z,41.72
2018-03-22T11:44:57.534Z,40.28
2018-03-22T11:47:26.991Z,41.80
2018-03-22T11:49:55.230Z,40.83
2018-03-22T11:52:24.840Z,41.83
2018-03-22T11:54:59.919Z,43.15
2018-03-22T11:57:28.423Z,44.47
2018-03-22T11:59:57.761Z,42.50
2018-03-22T12:02:25.729Z,43.92
2018-03-22T12:04:54.414Z,42.50
2018-03-22T12:07:23.212Z,44.88
2018-03-22T12:09:51.163Z,42.45
2018-03-22T12:12:19.233Z,42.15
2018-03-22T12:14:47.311Z,42.10
2018-03-22T12:17:15.572Z,41.78
2018-03-22T12:19:43.529Z,38.40
2018-03-22T12:22:11.505Z,42.50
2018-03-22T12:24:39.492Z,43.90
2018-03-22T12:27:07.655Z,39.47
2018-03-22T12:29:35.577Z,43.25
2018-03-22T12:32:04.219Z,42.65
2018-03-22T12:34:32.192Z,43.55
2018-03-22T12:37:00.212Z,42.15
2018-03-22T12:39:29.318Z,42.13
2018-03-22T12:41:57.218Z,41.60
2018-03-22T12:44:25.290Z,41.22
2018-03-22T12:46:53.382Z,42.65
2018-03-22T12:49:21.472Z,42.67
2018-03-22T12:51:49.352Z,41.90
2018-03-22T12:54:18.027Z,40.80
2018-03-22T12:56:46.612Z,42.10
2018-03-22T12:59:15.247Z,41.40
2018-03-22T13:01:43.203Z,42.50
2018-03-22T13:04:10.994Z,41.47
2018-03-22T13:06:38.869Z,40.90
2018-03-22T13:09:06.662Z,40.40
2018-03-22T13:11:35.371Z,41.75
2018-03-22T13:14:03.368Z,40.40
2018-03-22T13:16:31.348Z,41.17
2018-03-22T13:18:59.141Z,41.60
2018-03-22T13:21:26.949Z,40.45
2018-03-22T13:23:54.883Z,39.67
2018-03-22T13:26:23.429Z,44.83
2018-03-22T13:28:51.365Z,40.75
2018-03-22T13:31:19.191Z,40.88
2018-03-22T13:33:47.837Z,39.92
2018-03-22T13:36:16.637Z,42.53
2018-03-22T13:38:44.482Z,41.90
2018-03-22T13:41:12.267Z,41.65
2018-03-22T13:43:40.061Z,43.15
2018-03-22T13:46:08.754Z,42.70
2018-03-22T13:48:37.404Z,41.47
2018-03-22T13:51:05.516Z,40.72
2018-03-22T13:53:34.188Z,42.60
2018-03-22T13:56:02.759Z,42.22
2018-03-22T13:58:30.635Z,42.88
2018-03-22T14:00:59.535Z,42.80
2018-03-22T14:03:28.146Z,42.42
2018-03-22T14:05:56.175Z,43.30
2018-03-22T14:08:24.860Z,43.60
2018-03-22T14:10:54.996Z,43.78
2018-03-22T14:13:22.867Z,44.00
2018-03-22T14:15:50.808Z,45.60
2018-03-22T14:18:18.852Z,54.33
2018-03-22T14:20:46.994Z,43.87
2018-03-22T14:23:14.909Z,43.67
2018-03-22T14:25:43.115Z,43.25
2018-03-22T14:28:11.491Z,46.10
2018-03-22T14:30:40.293Z,45.03
2018-03-22T14:33:08.102Z,44.58
2018-03-22T14:35:37.094Z,45.28
2018-03-22T14:38:05.146Z,45.10
2018-03-22T14:40:32.972Z,43.95
2018-03-22T14:43:01.565Z,43.58
2018-03-22T14:45:29.531Z,44.83
2018-03-22T14:47:57.548Z,44.20
2018-03-22T14:50:25.419Z,43.30
2018-03-22T14:52:53.432Z,42.60
2018-03-22T14:55:21.391Z,43.35
2018-03-22T14:57:50.808Z,45.22
2018-03-22T15:00:18.789Z,45.60
2018-03-22T15:02:48.331Z,44.78
2018-03-22T15:05:19.510Z,46.22
2018-03-22T15:07:48.962Z,46.75
2018-03-22T15:10:16.970Z,49.20
2018-03-22T15:12:46.157Z,47.70
2018-03-22T15:15:15.137Z,48.63
2018-03-22T15:17:43.701Z,48.92
2018-03-22T15:20:11.823Z,49.33
2018-03-22T15:22:43.018Z,52.08
2018-03-22T15:25:12.479Z,52.28
2018-03-22T15:27:41.082Z,55.33
2018-03-22T15:30:08.893Z,49.75
2018-03-22T15:32:38.322Z,49.00
2018-03-22T15:35:07.305Z,48.20
2018-03-22T15:37:38.241Z,50.00
2018-03-22T15:40:07.907Z,51.25
2018-03-22T15:42:35.907Z,47.88
2018-03-22T15:45:10.243Z,49.70
2018-03-22T15:47:45.415Z,51.28
2018-03-22T15:50:13.877Z,49.22
2018-03-22T15:52:53.220Z,46.33
2018-03-22T15:55:28.114Z,42.92
2018-03-22T15:57:56.061Z,43.85
2018-03-22T16:00:24.098Z,44.72
2018-03-22T16:02:57.558Z,42.58
2018-03-22T16:05:32.060Z,43.75
2018-03-22T16:08:03.735Z,42.47
2018-03-22T16:10:33.659Z,42.78
2018-03-22T16:13:05.343Z,42.85
2018-03-22T16:15:33.195Z,42.65
2018-03-22T16:18:01.908Z,41.50
2018-03-22T16:20:29.728Z,44.65
2018-03-22T16:23:01.379Z,43.75
2018-03-22T16:25:30.153Z,42.50
2018-03-22T16:27:59.133Z,44.63
2018-03-22T16:30:30.232Z,47.05
2018-03-22T16:32:58.189Z,45.05
2018-03-22T16:35:27.077Z,44.55
2018-03-22T16:37:56.300Z,44.92
2018-03-22T16:40:28.092Z,45.88
2018-03-22T16:42:55.944Z,45.70
2018-03-22T16:45:24.836Z,46.67
2018-03-22T16:47:53.075Z,45.83
2018-03-22T16:50:22.134Z,47.80
2018-03-22T16:52:52.093Z,46.47
2018-03-22T16:55:21.883Z,47.72
2018-03-22T16:57:51.239Z,46.33
2018-03-22T17:00:19.210Z,47.75
2018-03-22T17:02:47.008Z,47.05
2018-03-22T17:05:15.926Z,48.83
2018-03-22T17:07:44.087Z,49.53
2018-03-22T17:10:12.171Z,48.00
2018-03-22T17:12:40.283Z,49.28
2018-03-22T17:15:08.502Z,48.75
2018-03-22T17:17:36.569Z,51.08
2018-03-22T17:20:04.559Z,48.90
2018-03-22T17:22:32.523Z,48.70
2018-03-22T17:25:00.487Z,49.15
2018-03-22T17:27:28.419Z,50.53
2018-03-22T17:29:57.250Z,49.10
2018-03-22T17:32:25.156Z,49.38
2018-03-22T17:34:55.237Z,52.00
2018-03-22T17:37:23.119Z,51.15
2018-03-22T17:39:50.968Z,51.50
2018-03-22T17:42:18.879Z,56.90
2018-03-22T17:44:46.733Z,53.67
2018-03-22T17:47:14.775Z,53.10
2018-03-22T17:49:42.783Z,51.80
2018-03-22T17:52:10.638Z,53.15
2018-03-22T17:54:38.471Z,51.13
2018-03-22T17:57:07.261Z,55.33
2018-03-22T17:59:35.334Z,50.83
2018-03-22T18:02:03.378Z,53.17
2018-03-22T18:04:31.172Z,51.58
2018-03-22T18:06:58.943Z,54.30
2018-03-22T18:09:26.767Z,52.33
2018-03-22T18:11:54.687Z,53.38
2018-03-22T18:14:22.519Z,53.08
2018-03-22T18:16:50.388Z,52.30
2018-03-22T18:19:18.191Z,50.85
2018-03-22T18:21:46.047Z,51.37
2018-03-22T18:24:13.897Z,51.15
2018-03-22T18:26:42.546Z,50.63
2018-03-22T18:29:10.499Z,51.65
2018-03-22T18:31:39.127Z,50.38
2018-03-22T18:34:06.946Z,49.05
2018-03-22T18:36:35.573Z,46.58
2018-03-22T18:39:03.498Z,49.60
2018-03-22T18:41:32.111Z,49.83
2018-03-22T18:43:59.989Z,47.78
2018-03-22T18:46:27.994Z,50.58
2018-03-22T18:48:58.420Z,49.38
2018-03-22T18:51:26.476Z,50.42
2018-03-22T18:53:54.438Z,46.78
2018-03-22T18:56:22.206Z,48.15
2018-03-22T18:58:50.024Z,48.63
2018-03-22T19:01:18.320Z,48.03
2018-03-22T19:03:46.182Z,47.92
2018-03-22T19:06:15.315Z,48.87
2018-03-22T19:08:43.284Z,49.97
2018-03-22T19:11:11.150Z,49.47
2018-03-22T19:13:39.051Z,48.90
2018-03-22T19:16:07.640Z,53.15
2018-03-22T19:18:35.627Z,54.08
2018-03-22T19:21:03.463Z,50.67
2018-03-22T19:23:32.095Z,53.47
2018-03-22T19:25:59.959Z,50.42
2018-03-22T19:28:27.762Z,49.17
2018-03-22T19:30:56.330Z,50.45
2018-03-22T19:33:24.911Z,52.38
2018-03-22T19:35:54.415Z,50.65
2018-03-22T19:38:22.295Z,53.15
2018-03-22T19:40:50.089Z,52.60
2018-03-22T19:43:18.645Z,51.10
2018-03-22T19:45:46.529Z,52.55
2018-03-22T19:48:15.071Z,51.47
2018-03-22T19:50:42.944Z,51.13
2018-03-22T19:53:10.773Z,51.33
2018-03-22T19:55:38.595Z,51.17
2018-03-22T19:58:07.171Z,49.40
2018-03-22T20:00:35.001Z,51.08
2018-03-22T20:03:02.855Z,50.42
2018-03-22T20:05:31.005Z,52.13
2018-03-22T20:07:58.941Z,53.28
2018-03-22T20:10:26.760Z,52.15
2018-03-22T20:12:54.520Z,52.30
2018-03-22T20:15:22.443Z,52.28
2018-03-22T20:17:51.099Z,53.85
2018-03-22T20:20:19.000Z,51.40
2018-03-22T20:22:47.654Z,52.05
2018-03-22T20:25:15.518Z,52.65
2018-03-22T20:27:43.332Z,51.63
2018-03-22T20:30:11.257Z,48.78
2018-03-22T20:32:39.048Z,50.78
2018-03-22T20:35:07.697Z,51.00
2018-03-22T20:37:35.778Z,52.42
2018-03-22T20:40:03.683Z,53.45
2018-03-22T20:42:32.542Z,51.95
2018-03-22T20:45:00.404Z,51.15
2018-03-22T20:47:28.212Z,50.83
2018-03-22T20:49:56.353Z,50.20
2018-03-22T20:52:24.182Z,50.97
2018-03-22T20:54:51.947Z,51.85
2018-03-22T20:57:19.729Z,50.35
2018-03-22T20:59:47.531Z,51.67
2018-03-22T21:02:16.420Z,53.78
2018-03-22T21:04:45.007Z,51.10
2018-03-22T21:07:13.614Z,50.53
2018-03-22T21:09:41.442Z,51.20
2018-03-22T21:12:09.992Z,50.83
2018-03-22T21:14:37.838Z,51.15
2018-03-22T21:17:05.627Z,51.53
2018-03-22T21:19:33.388Z,51.10
2018-03-22T21:22:01.255Z,50.03
2018-03-22T21:24:29.090Z,50.25
2018-03-22T21:26:56.884Z,48.75
2018-03-22T21:29:24.675Z,46.28
2018-03-22T21:31:53.238Z,46.42
2018-03-22T21:34:21.023Z,47.67
2018-03-22T21:36:49.586Z,47.78
2018-03-22T21:39:17.420Z,47.13
2018-03-22T21:44:44.036Z,47.10
2018-03-22T21:47:24.435Z,51.35
2018-03-22T21:49:52.277Z,49.50
2018-03-22T21:52:32.169Z,49.47
2018-03-22T21:55:00.013Z,47.80
2018-03-22T21:57:27.851Z,47.75
2018-03-22T21:59:55.718Z,48.13
2018-03-22T22:02:23.635Z,50.92
2018-03-22T22:04:51.441Z,49.83
2018-03-22T22:07:20.127Z,46.15
2018-03-22T22:09:48.027Z,51.35
2018-03-22T22:12:15.843Z,47.03
2018-03-22T22:14:44.500Z,46.90
2018-03-22T22:17:12.674Z,45.80
2018-03-22T22:19:40.500Z,47.97
2018-03-22T22:22:08.322Z,45.38
2018-03-22T22:24:36.389Z,46.08
2018-03-22T22:27:04.344Z,43.08
2018-03-22T22:29:32.260Z,43.20
2018-03-22T22:32:00.166Z,42.15
2018-03-22T22:34:28.151Z,42.00
2018-03-22T22:36:55.938Z,42.10
2018-03-22T22:41:58.565Z,40.92
2018-03-22T22:44:26.777Z,41.92
2018-03-22T22:46:54.750Z,41.42
2018-03-22T22:49:22.725Z,41.65
2018-03-22T22:51:50.792Z,41.00
2018-03-22T22:54:18.654Z,41.55
2018-03-22T22:56:46.535Z,40.08
2018-03-22T22:59:14.446Z,41.05
2018-03-22T23:01:42.564Z,41.55
2018-03-22T23:04:10.402Z,42.10
2018-03-22T23:06:38.283Z,43.10
2018-03-22T23:09:06.159Z,42.75
2018-03-22T23:11:34.007Z,44.20
2018-03-22T23:14:02.041Z,43.00
2018-03-22T23:16:29.835Z,43.33
2018-03-22T23:18:57.730Z,44.28
2018-03-22T23:21:25.622Z,43.97
2018-03-22T23:23:54.375Z,43.97
2018-03-22T23:26:22.239Z,43.67
2018-03-22T23:28:50.334Z,44.30
2018-03-22T23:31:18.314Z,45.67
2018-03-22T23:33:48.618Z,101.68
2018-03-22T23:36:17.319Z,45.22
2018-03-22T23:38:45.990Z,44.30
2018-03-22T23:41:14.874Z,44.80
2018-03-22T23:43:42.771Z,45.65
2018-03-22T23:46:11.656Z,44.85
2018-03-22T23:48:40.438Z,45.15
2018-03-22T23:51:09.478Z,45.40
2018-03-22T23:53:39.520Z,47.78
2018-03-22T23:56:07.383Z,45.85
2018-03-22T23:58:35.584Z,46.15
